Time;durP1;ratioP1;P1;durP2;ratioP2;P2;SDS_P1;SDS_P2;PMS_P1;PMS_P2;Temp;Humidity;BMP_temperature;BMP_pressure;BME280_temperature;BME280_humidity;BME280_pressure;Samples;Min_cycle;Max_cycle;Signal;HPM_P1;HPM_P2
2023/04/09 00:05:34;;;;;;;135.40;66.40;;;;;;;2.96;100.00;99686.80;271696;1266;25303;-85
2023/04/09 00:11:47;;;;;;;133.60;65.80;;;;;;;2.93;100.00;99684.05;270996;1267;22541;-87
2023/04/09 00:18:14;;;;;;;127.10;65.00;;;;;;;2.94;100.00;99682.79;271327;1266;22526;-88
2023/04/09 00:24:17;;;;;;;130.90;63.20;;;;;;;2.88;100.00;99688.89;271684;1266;23049;-86
2023/04/09 00:30:21;;;;;;;126.50;64.30;;;;;;;2.86;100.00;99694.90;272810;1267;22544;-85
2023/04/09 00:36:32;;;;;;;123.90;63.10;;;;;;;2.92;100.00;99694.16;272309;1267;22531;-87
2023/04/09 00:43:01;;;;;;;131.80;67.70;;;;;;;2.98;100.00;99692.21;270495;1267;23398;-85
2023/04/09 00:49:28;;;;;;;133.00;68.70;;;;;;;3.03;100.00;99692.27;270567;1257;22670;-86
2023/04/09 00:55:29;;;;;;;137.70;69.70;;;;;;;3.05;100.00;99689.00;270546;1271;22548;-85
2023/04/09 01:01:32;;;;;;;131.90;64.90;;;;;;;3.06;100.00;99688.05;270263;1271;24265;-86
2023/04/09 01:08:08;;;;;;;123.90;63.60;;;;;;;3.04;100.00;99681.30;270579;1253;22335;-85
2023/04/09 01:14:57;;;;;;;132.00;65.00;;;;;;;3.05;100.00;99679.25;271017;1267;22497;-86
2023/04/09 01:21:26;;;;;;;119.00;60.10;;;;;;;3.05;100.00;99679.70;270376;1266;22553;-85
2023/04/09 01:28:14;;;;;;;119.50;60.70;;;;;;;3.03;100.00;99674.45;270600;1267;22597;-86
2023/04/09 01:34:21;;;;;;;108.50;55.70;;;;;;;3.00;100.00;99680.54;270803;1270;22572;-86
2023/04/09 01:40:23;;;;;;;135.10;68.30;;;;;;;2.95;100.00;99686.94;270712;1267;22536;-86
2023/04/09 01:46:24;;;;;;;125.50;61.40;;;;;;;2.88;100.00;99683.30;273126;1267;22294;-86
2023/04/09 01:52:47;;;;;;;119.70;60.00;;;;;;;2.81;100.00;99677.60;271645;1266;22208;-88
2023/04/09 01:58:51;;;;;;;122.30;63.80;;;;;;;2.77;100.00;99676.41;269947;1266;22600;-85
2023/04/09 02:04:57;;;;;;;118.60;61.90;;;;;;;2.67;100.00;99679.95;269850;1266;22647;-85
2023/04/09 02:11:03;;;;;;;126.90;62.00;;;;;;;2.60;100.00;99684.93;270060;1267;22581;-86
2023/04/09 02:17:05;;;;;;;131.30;63.20;;;;;;;2.57;100.00;99688.46;270326;1269;23340;-87
2023/04/09 02:23:08;;;;;;;133.20;65.10;;;;;;;2.55;100.00;99692.70;271762;1256;22534;-85
2023/04/09 02:29:12;;;;;;;118.10;57.40;;;;;;;2.55;100.00;99693.46;272083;1266;23274;-86
2023/04/09 02:35:14;;;;;;;119.40;59.30;;;;;;;2.51;100.00;99695.52;271033;1267;22529;-86
2023/04/09 02:41:17;;;;;;;132.90;62.30;;;;;;;2.47;100.00;99695.73;272346;1261;23398;-85
2023/04/09 02:47:35;;;;;;;135.90;64.80;;;;;;;2.44;100.00;99691.88;271941;1267;22588;-85
2023/04/09 02:53:39;;;;;;;129.50;64.00;;;;;;;2.47;100.00;99690.76;270395;1267;22589;-85
2023/04/09 03:00:04;;;;;;;121.10;61.10;;;;;;;2.51;100.00;99689.63;271597;1267;22990;-85
2023/04/09 03:06:05;;;;;;;117.10;58.80;;;;;;;2.52;100.00;99686.19;270434;1267;22661;-85
2023/04/09 03:12:08;;;;;;;124.70;59.50;;;;;;;2.50;100.00;99686.94;270805;1267;22560;-85
2023/04/09 03:18:30;;;;;;;124.10;60.70;;;;;;;2.41;100.00;99684.34;271215;1267;22619;-85
2023/04/09 03:24:32;;;;;;;127.80;61.50;;;;;;;2.37;100.00;99691.88;273415;1266;22984;-86
2023/04/09 03:30:37;;;;;;;133.40;65.50;;;;;;;2.44;100.00;99689.52;273977;1266;22317;-86
2023/04/09 03:36:42;;;;;;;117.80;58.40;;;;;;;2.51;100.00;99688.77;273377;1260;22380;-88
2023/04/09 03:42:51;;;;;;;128.50;64.80;;;;;;;2.56;100.00;99686.36;273018;1267;22504;-86
2023/04/09 03:48:53;;;;;;;131.40;62.00;;;;;;;2.58;100.00;99688.01;270662;1258;22516;-86
2023/04/09 03:54:55;;;;;;;107.60;53.50;;;;;;;2.58;100.00;99691.02;273236;1266;22321;-85
2023/04/09 04:01:00;;;;;;;119.60;58.00;;;;;;;2.58;100.00;99689.20;270255;1267;24260;-88
2023/04/09 04:07:31;;;;;;;142.10;69.40;;;;;;;2.57;100.00;99691.16;270072;1266;24341;-86
2023/04/09 04:14:06;;;;;;;122.20;60.60;;;;;;;2.56;100.00;99696.74;270180;1267;22629;-86
2023/04/09 04:20:13;;;;;;;106.70;55.70;;;;;;;2.58;100.00;99698.55;270632;1267;23471;-86
2023/04/09 04:26:25;;;;;;;109.60;52.50;;;;;;;2.62;100.00;99700.61;270013;1267;24253;-86
2023/04/09 04:32:29;;;;;;;112.70;54.60;;;;;;;2.67;100.00;99702.34;270965;1267;22564;-87
2023/04/09 04:38:36;;;;;;;110.90;54.00;;;;;;;2.73;100.00;99702.73;271664;1266;22547;-89
2023/04/09 04:44:48;;;;;;;119.70;59.50;;;;;;;2.77;100.00;99707.05;272957;1267;22372;-87
2023/04/09 04:51:05;;;;;;;116.70;60.50;;;;;;;2.85;100.00;99706.16;272671;1257;22528;-87
2023/04/09 04:57:15;;;;;;;121.00;62.40;;;;;;;2.97;100.00;99708.96;270587;1267;22531;-87
2023/04/09 05:03:38;;;;;;;137.00;70.30;;;;;;;3.04;100.00;99713.52;271050;1261;22415;-86
2023/04/09 05:10:15;;;;;;;126.90;63.00;;;;;;;3.06;100.00;99717.27;271886;1266;22365;-89
2023/04/09 05:16:18;;;;;;;130.00;62.80;;;;;;;3.15;100.00;99720.09;272881;1266;22568;-88
2023/04/09 05:22:23;;;;;;;131.60;66.00;;;;;;;3.30;100.00;99715.44;272950;1266;22681;-87
2023/04/09 05:28:32;;;;;;;121.90;60.00;;;;;;;3.43;100.00;99716.45;272155;1266;23933;-87
2023/04/09 05:34:42;;;;;;;118.30;61.70;;;;;;;3.54;100.00;99718.98;273024;1266;22391;-87
2023/04/09 05:41:04;;;;;;;120.70;64.20;;;;;;;3.70;100.00;99720.11;274061;1266;22233;-87
2023/04/09 05:47:13;;;;;;;120.00;58.80;;;;;;;3.87;100.00;99727.48;272154;1270;25201;-86
2023/04/09 05:53:24;;;;;;;107.40;57.10;;;;;;;4.00;100.00;99731.72;270688;1266;22665;-87
2023/04/09 05:59:46;;;;;;;113.10;56.20;;;;;;;4.15;100.00;99736.48;269693;1263;22538;-86
2023/04/09 06:05:55;;;;;;;100.90;52.80;;;;;;;4.35;100.00;99739.15;269886;1269;23296;-87
2023/04/09 06:12:18;;;;;;;95.10;52.20;;;;;;;4.56;100.00;99740.32;269780;1269;22559;-87
2023/04/09 06:18:38;;;;;;;98.30;51.20;;;;;;;4.76;100.00;99746.36;269924;1257;23933;-88
2023/04/09 06:25:02;;;;;;;98.10;51.50;;;;;;;4.98;100.00;99746.81;272038;1269;22577;-89
2023/04/09 06:31:05;;;;;;;88.30;48.30;;;;;;;5.20;100.00;99748.55;270315;1266;22551;-87
2023/04/09 06:37:06;;;;;;;95.70;54.40;;;;;;;5.36;100.00;99750.73;270420;1266;22530;-87
2023/04/09 06:43:08;;;;;;;97.50;54.10;;;;;;;5.71;100.00;99751.49;270583;1266;25261;-87
2023/04/09 06:49:27;;;;;;;88.20;50.70;;;;;;;6.00;100.00;99760.02;270870;1258;22622;-87
2023/04/09 06:55:28;;;;;;;84.40;47.10;;;;;;;6.18;100.00;99760.20;273725;1267;24218;-88
2023/04/09 07:01:30;;;;;;;78.10;45.70;;;;;;;6.52;100.00;99763.12;271769;1266;22534;-88
2023/04/09 07:07:32;;;;;;;79.10;47.20;;;;;;;6.88;100.00;99771.04;271089;1266;22202;-88
2023/04/09 07:13:33;;;;;;;79.90;48.20;;;;;;;7.18;100.00;99772.33;270233;1260;23691;-89
2023/04/09 07:19:44;;;;;;;79.70;43.40;;;;;;;7.48;100.00;99771.48;270525;1260;22338;-88
2023/04/09 07:25:48;;;;;;;74.30;43.80;;;;;;;7.86;100.00;99772.02;272638;1267;23673;-86
2023/04/09 07:32:17;;;;;;;64.80;39.70;;;;;;;8.68;100.00;99765.09;270818;1260;26615;-87
2023/04/09 07:39:41;;;;;;;55.50;35.30;;;;;;;9.13;100.00;99763.98;271000;1266;23832;-88
2023/04/09 07:45:48;;;;;;;53.00;33.90;;;;;;;9.25;100.00;99768.70;272935;1266;23575;-87
2023/04/09 07:52:10;;;;;;;50.60;30.70;;;;;;;9.77;100.00;99766.05;271467;1264;22588;-87
2023/04/09 07:58:13;;;;;;;47.80;30.20;;;;;;;10.08;100.00;99760.25;270311;1266;489439;-87
2023/04/09 08:04:14;;;;;;;42.60;28.90;;;;;;;10.55;100.00;99768.20;271511;1257;22569;-87
2023/04/09 08:10:15;;;;;;;44.70;28.70;;;;;;;10.80;99.56;99770.59;270282;1266;23142;-88
2023/04/09 08:16:18;;;;;;;39.20;24.90;;;;;;;10.71;99.48;99770.55;270595;1267;23296;-89
2023/04/09 08:22:20;;;;;;;32.30;22.80;;;;;;;10.85;98.39;99764.27;270833;1266;22557;-88
2023/04/09 08:28:22;;;;;;;36.00;24.00;;;;;;;11.01;96.88;99769.02;270504;1266;23427;-89
2023/04/09 08:34:59;;;;;;;33.70;22.60;;;;;;;11.25;95.70;99766.55;270635;1266;22527;-87
2023/04/09 08:41:24;;;;;;;35.80;24.20;;;;;;;11.17;93.87;99764.02;272251;1266;22540;-88
2023/04/09 08:48:12;;;;;;;38.20;24.40;;;;;;;11.47;94.56;99767.07;271103;1266;22498;-89
2023/04/09 08:54:30;;;;;;;31.80;21.80;;;;;;;11.78;93.86;99765.95;271452;1266;22406;-90
2023/04/09 09:00:32;;;;;;;32.60;22.60;;;;;;;12.41;92.85;99765.88;273886;1266;22340;-89
2023/04/09 09:06:39;;;;;;;30.90;22.60;;;;;;;13.34;91.76;99765.55;272419;1266;23389;-89
2023/04/09 09:12:42;;;;;;;27.80;20.90;;;;;;;14.11;90.44;99759.17;272361;1266;22556;-89
2023/04/09 09:19:01;;;;;;;29.10;22.10;;;;;;;14.79;87.47;99761.93;272027;1266;24279;-91
2023/04/09 09:25:13;;;;;;;26.50;18.60;;;;;;;14.33;85.53;99765.72;271938;1266;23767;-90
2023/04/09 09:31:15;;;;;;;31.80;21.10;;;;;;;13.54;84.89;99766.85;272673;1259;23162;-89
2023/04/09 09:38:03;;;;;;;27.50;20.50;;;;;;;13.26;84.71;99766.96;272985;1266;22942;-90
2023/04/09 09:44:06;;;;;;;28.30;19.00;;;;;;;12.99;84.43;99764.55;273584;1256;22298;-88
2023/04/09 09:50:27;;;;;;;24.10;18.90;;;;;;;12.79;82.95;99767.71;274023;1263;22447;-89
2023/04/09 09:56:31;;;;;;;24.60;18.40;;;;;;;12.81;82.66;99762.41;273978;1263;22429;-89
2023/04/09 10:02:49;;;;;;;20.20;15.80;;;;;;;12.59;81.93;99761.93;273968;1266;23545;-88
2023/04/09 10:08:56;;;;;;;16.70;13.30;;;;;;;12.38;82.14;99760.34;274086;1266;22915;-90
2023/04/09 10:15:03;;;;;;;20.60;15.40;;;;;;;12.29;81.31;99757.69;273906;1266;23116;-89
2023/04/09 10:21:54;;;;;;;19.50;14.80;;;;;;;12.50;80.89;99750.42;273239;1266;23205;-91
2023/04/09 10:28:42;;;;;;;20.60;15.50;;;;;;;13.63;80.82;99746.33;273200;1266;22324;-90
2023/04/09 10:35:08;;;;;;;18.50;15.10;;;;;;;14.27;79.04;99735.73;273485;1266;23467;-89
2023/04/09 10:41:32;;;;;;;17.90;14.00;;;;;;;14.07;77.49;99733.26;273155;1266;22540;-90
2023/04/09 10:47:42;;;;;;;24.00;15.30;;;;;;;13.89;77.06;99735.45;274088;1266;23159;-88
2023/04/09 10:53:46;;;;;;;18.30;14.50;;;;;;;14.03;76.85;99732.59;272879;1266;26300;-90
2023/04/09 10:59:52;;;;;;;21.90;16.20;;;;;;;13.95;75.96;99724.73;272654;1265;22360;-89
2023/04/09 11:06:12;;;;;;;21.40;14.70;;;;;;;13.40;74.87;99721.49;271742;1266;22618;-89
2023/04/09 11:12:14;;;;;;;23.30;16.40;;;;;;;13.10;74.77;99721.84;270917;1266;22708;-89
2023/04/09 11:18:39;;;;;;;29.90;22.00;;;;;;;12.77;75.01;99723.40;272461;1257;22550;-89
2023/04/09 11:25:07;;;;;;;21.90;17.40;;;;;;;12.29;75.02;99730.31;271472;1266;24350;-90
2023/04/09 11:31:10;;;;;;;22.30;16.30;;;;;;;11.96;75.16;99734.40;273646;1266;22357;-89
2023/04/09 11:37:35;;;;;;;23.30;17.90;;;;;;;11.78;75.16;99734.86;273378;1264;22593;-87
2023/04/09 11:43:36;;;;;;;23.10;15.70;;;;;;;11.59;75.27;99733.15;271172;1266;23559;-87
2023/04/09 11:49:37;;;;;;;21.50;16.40;;;;;;;11.50;75.33;99731.01;270892;1267;22533;-89
2023/04/09 11:55:50;;;;;;;21.60;16.10;;;;;;;11.58;75.40;99728.51;270403;1251;24236;-88
2023/04/09 12:02:18;;;;;;;22.20;15.60;;;;;;;11.74;75.40;99730.77;272671;1266;22491;-88
2023/04/09 12:08:41;;;;;;;26.80;17.80;;;;;;;12.02;75.44;99734.88;270677;1260;22186;-87
2023/04/09 12:15:07;;;;;;;25.70;17.20;;;;;;;12.29;75.03;99739.02;271543;1266;22576;-88
2023/04/09 12:21:09;;;;;;;23.30;17.00;;;;;;;12.40;74.20;99740.76;272158;1266;24352;-88
2023/04/09 12:28:00;;;;;;;27.20;18.10;;;;;;;12.41;73.83;99738.27;270050;1263;22583;-88
2023/04/09 12:34:23;;;;;;;24.90;18.40;;;;;;;12.26;73.47;99730.12;270840;1266;22616;-88
2023/04/09 12:40:25;;;;;;;23.70;16.00;;;;;;;12.14;73.35;99730.07;271686;1267;22365;-90
2023/04/09 12:46:31;;;;;;;23.90;17.50;;;;;;;11.89;73.10;99732.38;270592;1267;22531;-88
2023/04/09 12:52:33;;;;;;;21.60;16.70;;;;;;;11.91;73.07;99730.14;272089;1259;22204;-89
2023/04/09 12:58:36;;;;;;;22.70;15.80;;;;;;;12.13;73.17;99724.32;273988;1266;22332;-88
2023/04/09 13:04:38;;;;;;;21.10;15.40;;;;;;;12.38;72.85;99715.31;272547;1266;22574;-88
2023/04/09 13:10:39;;;;;;;23.70;15.60;;;;;;;12.69;72.34;99714.21;273874;1266;22213;-90
2023/04/09 13:16:43;;;;;;;21.80;16.50;;;;;;;12.70;71.48;99714.14;270512;1257;22491;-89
2023/04/09 13:22:47;;;;;;;23.80;16.50;;;;;;;12.58;71.42;99713.11;269884;1267;22584;-88
2023/04/09 13:28:57;;;;;;;23.40;16.00;;;;;;;12.25;70.38;99715.59;270171;1267;24253;-88
2023/04/09 13:35:25;;;;;;;22.60;16.20;;;;;;;12.01;70.31;99714.02;270577;1266;23793;-90
2023/04/09 13:41:28;;;;;;;17.90;13.90;;;;;;;12.02;69.72;99717.17;270411;1267;22747;-88
2023/04/09 13:47:49;;;;;;;21.10;14.90;;;;;;;12.07;69.46;99716.40;271934;1267;22307;-88
2023/04/09 13:53:54;;;;;;;19.90;14.50;;;;;;;12.21;69.39;99711.60;272195;1266;23905;-88
2023/04/09 14:00:00;;;;;;;17.10;12.40;;;;;;;12.26;68.62;99709.87;272829;1259;24457;-87
2023/04/09 14:06:15;;;;;;;17.00;12.80;;;;;;;12.26;67.90;99709.80;270457;1266;22222;-88
2023/04/09 14:12:17;;;;;;;15.30;12.20;;;;;;;12.28;67.45;99708.19;271941;1266;22502;-88
2023/04/09 14:18:19;;;;;;;15.40;12.80;;;;;;;12.23;66.18;99702.86;273184;1267;22463;-89
2023/04/09 14:24:21;;;;;;;14.70;11.50;;;;;;;12.33;65.52;99699.88;271828;1266;22516;-88
2023/04/09 14:30:41;;;;;;;14.80;12.20;;;;;;;12.42;64.04;99695.05;271041;1266;22508;-89
2023/04/09 14:36:57;;;;;;;12.80;11.50;;;;;;;12.42;63.16;99693.73;270153;1266;22541;-89
2023/04/09 14:43:11;;;;;;;14.70;11.90;;;;;;;12.43;63.63;99689.98;270168;1266;22551;-88
2023/04/09 14:49:23;;;;;;;16.80;12.50;;;;;;;12.44;63.24;99682.77;270358;1267;22544;-87
2023/04/09 14:55:27;;;;;;;15.20;12.50;;;;;;;12.54;63.66;99680.10;270394;1266;25161;-89
2023/04/09 15:01:49;;;;;;;17.00;12.40;;;;;;;12.67;62.61;99675.02;270446;1266;22633;-89
2023/04/09 15:07:51;;;;;;;15.00;11.90;;;;;;;12.52;61.18;99673.88;271079;1253;22576;-88
2023/04/09 15:14:22;;;;;;;18.80;11.70;;;;;;;12.36;61.31;99672.23;271030;1256;22541;-89
2023/04/09 15:20:28;;;;;;;15.40;12.40;;;;;;;12.28;61.40;99667.79;274102;1266;22330;-88
2023/04/09 15:26:34;;;;;;;17.20;12.60;;;;;;;12.21;61.57;99669.41;270954;1271;22652;-87
2023/04/09 15:32:38;;;;;;;19.10;12.60;;;;;;;12.14;61.52;99676.66;271733;1266;24065;-88
2023/04/09 15:39:27;;;;;;;15.70;12.00;;;;;;;12.03;60.97;99674.30;270587;1266;24219;-87
2023/04/09 15:45:50;;;;;;;14.70;11.70;;;;;;;11.89;60.93;99669.92;271865;1266;22208;-89
2023/04/09 15:51:54;;;;;;;15.70;12.50;;;;;;;11.81;60.76;99670.02;274052;1266;22379;-88
2023/04/09 15:58:12;;;;;;;16.00;13.00;;;;;;;11.75;60.76;99671.66;273765;1267;22318;-90
2023/04/09 16:04:20;;;;;;;15.80;12.30;;;;;;;11.69;61.10;99672.16;274298;1253;22202;-89
2023/04/09 16:10:21;;;;;;;20.60;13.70;;;;;;;11.58;60.79;99676.70;274138;1269;22180;-86
2023/04/09 16:16:35;;;;;;;17.40;12.50;;;;;;;11.50;61.27;99678.61;274266;1266;22450;-88
2023/04/09 16:23:20;;;;;;;20.30;13.10;;;;;;;11.43;61.25;99682.70;271970;1271;22316;-89
2023/04/09 16:29:21;;;;;;;26.60;15.50;;;;;;;11.35;61.31;99685.23;273672;1266;22848;-88
2023/04/09 16:35:25;;;;;;;19.60;14.10;;;;;;;11.26;61.44;99687.19;273944;1266;22299;-87
2023/04/09 16:41:53;;;;;;;19.00;13.50;;;;;;;11.19;61.37;99688.66;272029;1266;22360;-88
2023/04/09 16:48:10;;;;;;;20.70;13.60;;;;;;;11.10;61.56;99691.15;274271;1266;22375;-89
2023/04/09 16:54:22;;;;;;;17.80;13.30;;;;;;;11.01;62.03;99691.59;273750;1263;22463;-89
2023/04/09 17:00:23;;;;;;;19.60;13.50;;;;;;;10.93;63.23;99693.41;274188;1266;22338;-88
2023/04/09 17:06:26;;;;;;;19.70;14.40;;;;;;;10.83;63.14;99699.52;272377;1267;22549;-88
2023/04/09 17:12:28;;;;;;;18.90;14.20;;;;;;;10.71;63.27;99704.81;270390;1266;23207;-88
2023/04/09 17:18:34;;;;;;;21.10;14.30;;;;;;;10.59;64.12;99703.30;271145;1267;22531;-88
2023/04/09 17:25:17;;;;;;;20.70;13.90;;;;;;;10.44;65.34;99706.95;271120;1266;23336;-88
2023/04/09 17:31:22;;;;;;;19.70;13.40;;;;;;;10.24;66.10;99710.33;270709;1266;22653;-88
2023/04/09 17:37:28;;;;;;;23.20;15.20;;;;;;;10.00;66.64;99715.66;271844;1266;22331;-88
2023/04/09 17:43:58;;;;;;;23.10;16.30;;;;;;;9.77;66.47;99726.07;273897;1266;22356;-88
2023/04/09 17:50:03;;;;;;;22.00;15.80;;;;;;;9.64;66.96;99728.86;273888;1267;22481;-89
2023/04/09 17:56:17;;;;;;;27.30;17.60;;;;;;;9.46;67.50;99731.65;265496;1266;10001583;-89
2023/04/09 18:02:42;;;;;;;25.20;17.30;;;;;;;9.37;69.05;99739.14;271095;1263;22572;-88
2023/04/09 18:08:44;;;;;;;31.50;21.70;;;;;;;9.30;69.77;99749.10;271429;1267;22573;-88
2023/04/09 18:14:48;;;;;;;34.00;23.10;;;;;;;9.11;69.98;99755.81;272589;1267;22349;-88
2023/04/09 18:20:52;;;;;;;35.10;22.40;;;;;;;8.93;70.64;99756.67;273867;1267;22582;-89
2023/04/09 18:27:16;;;;;;;42.90;23.50;;;;;;;8.78;71.67;99763.89;272501;1266;22997;-88
2023/04/09 18:33:35;;;;;;;35.10;24.00;;;;;;;8.64;72.09;99770.09;271107;1267;22629;-88
2023/04/09 18:40:22;;;;;;;42.60;25.40;;;;;;;8.48;72.61;99774.87;271392;1266;25524;-88
2023/04/09 18:46:24;;;;;;;41.20;24.50;;;;;;;8.37;73.43;99780.35;271413;1269;22557;-89
2023/04/09 18:52:25;;;;;;;48.90;27.10;;;;;;;8.20;74.09;99782.90;270743;1260;23396;-87
2023/04/09 18:58:30;;;;;;;45.70;26.50;;;;;;;8.02;74.70;99790.70;273133;1273;22653;-89
2023/04/09 19:04:38;;;;;;;50.70;29.60;;;;;;;7.89;75.12;99794.47;273894;1267;22359;-88
2023/04/09 19:10:41;;;;;;;45.60;28.10;;;;;;;7.80;75.49;99799.48;274039;1272;22448;-89
2023/04/09 19:16:55;;;;;;;48.20;31.30;;;;;;;7.75;76.14;99805.20;274156;1267;22628;-88
2023/04/09 19:22:58;;;;;;;47.40;29.10;;;;;;;7.68;76.75;99804.80;272253;1267;22555;-88
2023/04/09 19:29:04;;;;;;;52.10;28.60;;;;;;;7.57;77.08;99807.77;271346;1267;23851;-88
2023/04/09 19:35:06;;;;;;;41.90;26.40;;;;;;;7.52;77.89;99807.50;273539;1267;22304;-88
2023/04/09 19:41:09;;;;;;;51.80;30.40;;;;;;;7.47;78.63;99809.48;272711;1267;22357;-88
2023/04/09 19:47:11;;;;;;;47.30;27.90;;;;;;;7.38;78.98;99813.08;271129;1267;22519;-88
2023/04/09 19:53:16;;;;;;;54.40;31.50;;;;;;;7.25;79.28;99814.84;270185;1267;3992787;-88
2023/04/09 19:59:44;;;;;;;61.50;36.40;;;;;;;7.18;79.96;99814.27;271058;1267;23136;-89
2023/04/09 20:05:47;;;;;;;67.50;38.30;;;;;;;7.11;80.12;99817.55;271776;1266;24234;-89
2023/04/09 20:11:50;;;;;;;66.90;38.80;;;;;;;6.98;80.42;99819.00;271246;1267;22548;-87
2023/04/09 20:18:17;;;;;;;71.00;40.30;;;;;;;6.88;80.88;99817.77;271888;1267;22339;-88
2023/04/09 20:24:27;;;;;;;63.40;38.50;;;;;;;6.84;81.21;99819.71;271916;1267;23643;-88
2023/04/09 20:30:32;;;;;;;64.70;39.60;;;;;;;6.78;81.54;99820.85;272565;1267;22347;-89
2023/04/09 20:36:42;;;;;;;57.10;35.90;;;;;;;6.69;82.13;99820.20;273385;1267;22571;-88
2023/04/09 20:42:52;;;;;;;69.00;40.20;;;;;;;6.58;82.47;99818.61;273123;1263;23473;-87
2023/04/09 20:49:02;;;;;;;67.30;39.00;;;;;;;6.48;82.92;99819.36;273594;1264;22408;-88
2023/04/09 20:55:08;;;;;;;68.00;38.90;;;;;;;6.36;83.35;99824.27;273026;1267;23016;-88
2023/04/09 21:01:13;;;;;;;74.70;43.30;;;;;;;6.33;83.79;99824.98;271432;1267;22216;-87
2023/04/09 21:07:17;;;;;;;75.50;42.10;;;;;;;6.27;84.11;99825.22;273924;1267;22234;-88
2023/04/09 21:13:22;;;;;;;65.90;37.90;;;;;;;6.21;84.69;99823.96;273975;1267;23281;-89
2023/04/09 21:19:44;;;;;;;59.40;33.60;;;;;;;6.16;85.27;99819.15;274069;1267;22423;-88
2023/04/09 21:26:10;;;;;;;66.50;36.00;;;;;;;6.04;85.37;99817.30;274271;1257;22232;-89
2023/04/09 21:32:18;;;;;;;62.50;35.80;;;;;;;5.93;85.85;99829.66;272592;1266;22319;-87
2023/04/09 21:38:20;;;;;;;73.30;41.40;;;;;;;5.86;86.22;99828.37;272743;1266;26216;-88
2023/04/09 21:44:24;;;;;;;66.50;39.20;;;;;;;5.78;86.67;99833.02;273760;1270;25408;-88
2023/04/09 21:50:45;;;;;;;62.70;38.70;;;;;;;5.67;86.18;99831.45;271326;1266;24243;-87
2023/04/09 21:56:46;;;;;;;78.60;43.10;;;;;;;5.44;86.52;99837.20;270458;1267;22583;-85
2023/04/09 22:03:04;;;;;;;67.20;39.70;;;;;;;5.40;87.22;99839.56;270577;1257;24500;-86
2023/04/09 22:09:05;;;;;;;67.60;37.50;;;;;;;5.45;88.16;99840.58;272372;1266;23068;-88
2023/04/09 22:15:09;;;;;;;64.90;37.60;;;;;;;5.52;88.70;99850.03;270630;1266;26239;-87
2023/04/09 22:21:14;;;;;;;63.40;38.20;;;;;;;5.53;88.98;99850.80;270541;1266;22559;-87
2023/04/09 22:27:33;;;;;;;65.00;38.70;;;;;;;5.52;89.33;99847.25;270149;1266;22572;-89
2023/04/09 22:33:34;;;;;;;74.30;41.10;;;;;;;5.53;89.75;99847.83;270395;1263;22579;-87
2023/04/09 22:39:35;;;;;;;68.10;37.20;;;;;;;5.52;89.72;99849.04;270008;1256;22538;-86
2023/04/09 22:46:00;;;;;;;69.30;39.40;;;;;;;5.47;90.08;99851.44;270619;1266;24473;-87
2023/04/09 22:52:02;;;;;;;63.10;36.40;;;;;;;5.41;90.17;99850.02;271043;1266;26557;-87
2023/04/09 22:58:10;;;;;;;71.70;37.50;;;;;;;5.30;89.99;99845.08;271290;1266;22212;-87
2023/04/09 23:04:30;;;;;;;70.00;38.80;;;;;;;5.19;90.54;99845.88;274132;1259;22208;-87
2023/04/09 23:10:32;;;;;;;72.80;39.30;;;;;;;5.15;90.92;99846.98;271784;1266;22617;-86
2023/04/09 23:16:59;;;;;;;67.60;39.20;;;;;;;5.09;91.07;99848.61;269604;1267;22554;-87
2023/04/09 23:23:01;;;;;;;73.70;40.80;;;;;;;4.99;91.38;99841.42;272897;1266;22317;-87
2023/04/09 23:29:03;;;;;;;79.40;43.10;;;;;;;4.90;91.51;99841.92;273506;1266;22286;-89
2023/04/09 23:35:10;;;;;;;77.20;42.00;;;;;;;4.79;91.70;99842.80;271363;1266;22240;-87
2023/04/09 23:41:38;;;;;;;73.70;42.00;;;;;;;4.70;91.98;99843.55;270314;1267;22530;-86
2023/04/09 23:47:42;;;;;;;76.40;41.20;;;;;;;4.61;92.42;99838.32;269849;1266;23178;-86
2023/04/09 23:53:45;;;;;;;68.20;36.90;;;;;;;4.53;92.43;99831.36;271050;1267;22749;-86
2023/04/09 23:59:46;;;;;;;68.00;38.90;;;;;;;4.46;93.06;99829.77;272439;1266;22325;-88
